createdAt,value
2023-04-02T00:02:23.144Z,101524.38
2023-04-02T00:05:20.647Z,101534.19
2023-04-02T00:07:50.137Z,101538.66
2023-04-02T00:10:28.644Z,101530.69
2023-04-02T00:13:22.419Z,101540.59
2023-04-02T00:15:50.876Z,101540.72
2023-04-02T00:18:20.015Z,101550.38
2023-04-02T00:21:11.173Z,101554.88
2023-04-02T00:23:42.515Z,101551.38
2023-04-02T00:26:21.913Z,101550.66
2023-04-02T00:28:49.238Z,101563.09
2023-04-02T00:31:18.715Z,101565.75
2023-04-02T00:33:46.362Z,101564.91
2023-04-02T00:36:13.090Z,101577.97
2023-04-02T00:38:44.262Z,101561.69
2023-04-02T00:41:16.934Z,101584.38
2023-04-02T00:43:46.929Z,101587.16
2023-04-02T00:46:25.596Z,101593.31
2023-04-02T00:49:09.034Z,101595.28
2023-04-02T00:51:41.761Z,101592.63
2023-04-02T00:54:15.938Z,101599.78
2023-04-02T00:56:45.476Z,101598.94
2023-04-02T00:59:47.774Z,101612.34
2023-04-02T01:02:14.780Z,101610.66
2023-04-02T01:04:41.888Z,101619.59
2023-04-02T01:07:12.187Z,101625.06
2023-04-02T01:10:05.111Z,101624.91
2023-04-02T01:12:59.075Z,101640.16
2023-04-02T01:15:33.739Z,101633.16
2023-04-02T01:18:33.275Z,101637.63
2023-04-02T01:21:38.002Z,101643.91
2023-04-02T01:24:08.714Z,101638.00
2023-04-02T01:26:53.484Z,101650.31
2023-04-02T01:29:33.678Z,101648.63
2023-04-02T01:32:07.659Z,101657.47
2023-04-02T01:34:36.400Z,101661.09
2023-04-02T01:37:34.323Z,101664.59
2023-04-02T01:40:09.826Z,101663.75
2023-04-02T01:42:46.906Z,101668.25
2023-04-02T01:45:19.637Z,101686.97
2023-04-02T01:47:46.746Z,101684.56
2023-04-02T01:50:33.360Z,101687.34
2023-04-02T01:53:03.893Z,101698.09
2023-04-02T01:55:38.982Z,101697.50
2023-04-02T01:58:05.842Z,101713.22
2023-04-02T02:00:36.334Z,101708.03
2023-04-02T02:03:03.852Z,101702.94
2023-04-02T02:05:30.654Z,101721.31
2023-04-02T02:07:58.870Z,101722.41
2023-04-02T02:10:34.446Z,101720.75
2023-04-02T02:13:01.316Z,101728.72
2023-04-02T02:15:31.852Z,101732.19
2023-04-02T02:18:03.130Z,101734.03
2023-04-02T02:20:30.424Z,101739.06
2023-04-02T02:22:58.549Z,101737.66
2023-04-02T02:25:30.901Z,101748.28
2023-04-02T02:28:18.521Z,101750.94
2023-04-02T02:30:53.028Z,101748.53
2023-04-02T02:33:33.254Z,101764.47
2023-04-02T02:36:36.774Z,101767.97
2023-04-02T02:39:22.512Z,101777.75
2023-04-02T02:42:32.762Z,101779.56
2023-04-02T02:45:01.745Z,101793.84
2023-04-02T02:47:31.040Z,101788.50
2023-04-02T02:50:02.699Z,101800.00
2023-04-02T02:52:33.177Z,101807.13
2023-04-02T02:55:04.946Z,101816.06
2023-04-02T02:57:40.893Z,101825.72
2023-04-02T03:00:11.684Z,101817.16
2023-04-02T03:02:41.578Z,101819.91
2023-04-02T03:05:09.996Z,101827.78
2023-04-02T03:07:37.400Z,101823.69
2023-04-02T03:10:14.532Z,101831.53
2023-04-02T03:12:54.660Z,101842.16
2023-04-02T03:15:23.851Z,101845.78
2023-04-02T03:17:53.360Z,101845.78
2023-04-02T03:20:26.907Z,101854.75
2023-04-02T03:23:07.143Z,101863.69
2023-04-02T03:25:43.862Z,101870.81
2023-04-02T03:28:19.595Z,101882.28
2023-04-02T03:30:58.569Z,101887.81
2023-04-02T03:33:30.071Z,101895.19
2023-04-02T03:36:03.686Z,101900.63
2023-04-02T03:38:41.150Z,101906.91
2023-04-02T03:41:17.822Z,101901.69
2023-04-02T03:43:49.812Z,101905.19
2023-04-02T03:46:30.261Z,101921.16
2023-04-02T03:49:06.225Z,101917.78
2023-04-02T03:51:37.325Z,101925.63
2023-04-02T03:54:04.621Z,101926.59
2023-04-02T03:56:40.028Z,101927.66
2023-04-02T03:59:32.780Z,101942.53
2023-04-02T04:02:30.643Z,101950.53
2023-04-02T04:04:57.977Z,101957.00
2023-04-02T04:07:40.513Z,101966.78
2023-04-02T04:10:09.445Z,101970.38
2023-04-02T04:12:41.722Z,101978.25
2023-04-02T04:15:27.262Z,101980.16
2023-04-02T04:18:10.545Z,101987.28
2023-04-02T04:20:37.083Z,101989.09
2023-04-02T04:23:17.457Z,102001.53
2023-04-02T04:25:44.146Z,102004.31
2023-04-02T04:28:16.531Z,102004.19
2023-04-02T04:30:52.325Z,102010.69
2023-04-02T04:33:22.476Z,102021.31
2023-04-02T04:35:57.677Z,102037.25
2023-04-02T04:38:39.190Z,102032.19
2023-04-02T04:41:05.742Z,102035.56
2023-04-02T04:43:42.405Z,102048.13
2023-04-02T04:46:15.043Z,102055.97
2023-04-02T04:48:47.257Z,102067.59
2023-04-02T04:51:29.625Z,102074.81
2023-04-02T04:53:56.415Z,102075.78
2023-04-02T04:56:26.652Z,102069.00
2023-04-02T04:59:05.004Z,102084.69
2023-04-02T05:01:45.697Z,102094.47
2023-04-02T05:04:18.167Z,102097.13
2023-04-02T05:07:10.908Z,102105.09
2023-04-02T05:09:42.882Z,102105.22
2023-04-02T05:12:36.937Z,102119.22
2023-04-02T05:15:21.590Z,102129.00
2023-04-02T05:17:54.018Z,102131.78
2023-04-02T05:20:20.584Z,102135.28
2023-04-02T05:23:02.578Z,102136.34
2023-04-02T05:25:31.772Z,102142.50
2023-04-02T05:28:14.737Z,102146.13
2023-04-02T05:30:52.937Z,102150.59
2023-04-02T05:33:47.449Z,102160.63
2023-04-02T05:36:34.740Z,102162.53
2023-04-02T05:39:01.686Z,102156.59
2023-04-02T05:41:36.677Z,102174.00
2023-04-02T05:44:06.018Z,102177.63
2023-04-02T05:46:41.620Z,102177.72
2023-04-02T05:49:19.087Z,102178.91
2023-04-02T05:51:53.325Z,102195.56
2023-04-02T05:54:26.184Z,102196.53
2023-04-02T05:57:01.884Z,102208.09
2023-04-02T05:59:34.082Z,102211.59
2023-04-02T06:02:17.927Z,102223.72
2023-04-02T06:04:54.310Z,102208.00
2023-04-02T06:07:29.599Z,102225.53
2023-04-02T06:10:16.974Z,102235.09
2023-04-02T06:12:47.436Z,102247.41
2023-04-02T06:15:16.159Z,102246.66
2023-04-02T06:17:58.646Z,102258.88
2023-04-02T06:20:25.776Z,102263.34
2023-04-02T06:22:58.855Z,102276.50
2023-04-02T06:25:35.876Z,102283.59
2023-04-02T06:28:06.792Z,102297.03
2023-04-02T06:30:40.776Z,102293.28
2023-04-02T06:33:08.941Z,102289.16
2023-04-02T06:35:38.914Z,102301.47
2023-04-02T06:38:12.328Z,102302.44
2023-04-02T06:40:52.393Z,102312.97
2023-04-02T06:43:33.578Z,102311.16
2023-04-02T06:46:05.490Z,102319.97
2023-04-02T06:48:33.225Z,102320.94
2023-04-02T06:51:07.234Z,102330.59
2023-04-02T06:53:46.828Z,102335.06
2023-04-02T06:56:20.115Z,102343.03
2023-04-02T06:58:46.706Z,102349.19
2023-04-02T07:01:19.960Z,102347.34
2023-04-02T07:03:46.767Z,102350.25
2023-04-02T07:06:19.154Z,102358.97
2023-04-02T07:08:46.095Z,102370.53
2023-04-02T07:11:20.650Z,102374.06
2023-04-02T07:13:48.662Z,102378.72
2023-04-02T07:16:21.118Z,102392.63
2023-04-02T07:18:48.872Z,102394.56
2023-04-02T07:21:15.665Z,102390.19
2023-04-02T07:23:42.283Z,102404.22
2023-04-02T07:26:13.803Z,102400.72
2023-04-02T07:28:40.465Z,102409.53
2023-04-02T07:31:19.232Z,102404.31
2023-04-02T07:33:46.389Z,102411.53
2023-04-02T07:36:15.539Z,102416.19
2023-04-02T07:38:42.880Z,102428.53
2023-04-02T07:41:09.696Z,102434.69
2023-04-02T07:43:36.494Z,102434.78
2023-04-02T07:46:04.973Z,102445.31
2023-04-02T07:48:31.899Z,102442.66
2023-04-02T07:50:59.276Z,102447.66
2023-04-02T07:53:30.144Z,102451.69
2023-04-02T07:56:01.511Z,102458.28
2023-04-02T07:58:32.212Z,102454.91
2023-04-02T08:00:59.943Z,102460.69
2023-04-02T08:03:26.942Z,102461.50
2023-04-02T08:05:58.395Z,102469.06
2023-04-02T08:08:25.622Z,102471.50
2023-04-02T08:10:52.181Z,102468.09
2023-04-02T08:13:18.978Z,102475.78
2023-04-02T08:15:45.788Z,102473.63
2023-04-02T08:18:12.522Z,102477.00
2023-04-02T08:20:39.588Z,102477.63
2023-04-02T08:23:15.382Z,102481.50
2023-04-02T08:25:42.073Z,102495.50
2023-04-02T08:28:08.813Z,102491.72
2023-04-02T08:30:35.711Z,102485.03
2023-04-02T08:33:02.605Z,102492.97
2023-04-02T08:35:29.848Z,102500.28
2023-04-02T08:37:56.526Z,102503.31
2023-04-02T08:40:29.671Z,102503.50
2023-04-02T08:43:20.288Z,102511.13
2023-04-02T08:46:13.744Z,102525.16
2023-04-02T08:48:44.395Z,102519.09
2023-04-02T08:51:23.667Z,102525.16
2023-04-02T08:53:54.039Z,102533.16
2023-04-02T08:56:33.643Z,102536.34
2023-04-02T08:59:09.130Z,102542.91
2023-04-02T09:02:01.849Z,102543.31
2023-04-02T09:04:29.224Z,102533.28
2023-04-02T09:06:57.311Z,102541.97
2023-04-02T09:09:24.952Z,102539.19
2023-04-02T09:12:04.576Z,102540.78
2023-04-02T09:14:57.853Z,102552.81
2023-04-02T09:17:26.810Z,102550.28
2023-04-02T09:19:58.886Z,102560.53
2023-04-02T09:22:31.694Z,102560.38
2023-04-02T09:25:00.589Z,102567.03
2023-04-02T09:27:31.160Z,102580.38
2023-04-02T09:30:13.338Z,102571.41
2023-04-02T09:32:45.192Z,102583.06
2023-04-02T09:35:25.439Z,102586.22
2023-04-02T09:38:32.712Z,102586.34
2023-04-02T09:41:20.181Z,102571.19
2023-04-02T09:43:46.829Z,102587.03
2023-04-02T09:46:13.485Z,102593.47
2023-04-02T09:49:01.119Z,102600.06
2023-04-02T09:51:31.817Z,102602.13
2023-04-02T09:54:04.397Z,102603.06
2023-04-02T09:56:33.275Z,102612.28
2023-04-02T09:59:22.331Z,102616.25
2023-04-02T10:01:54.636Z,102616.59
2023-04-02T10:04:36.803Z,102624.94
2023-04-02T10:07:06.456Z,102631.78
2023-04-02T10:09:38.436Z,102634.91
2023-04-02T10:12:11.652Z,102627.34
2023-04-02T10:14:43.394Z,102636.56
2023-04-02T10:17:18.677Z,102636.78
2023-04-02T10:19:56.243Z,102649.44
2023-04-02T10:22:23.565Z,102655.00
2023-04-02T10:24:51.238Z,102657.91
2023-04-02T10:27:28.750Z,102656.41
2023-04-02T10:30:20.751Z,102648.63
2023-04-02T10:33:06.217Z,102666.63
2023-04-02T10:36:00.991Z,102665.19
2023-04-02T10:39:05.310Z,102666.03
2023-04-02T10:41:54.595Z,102673.16
2023-04-02T10:44:30.925Z,102677.75
2023-04-02T10:47:00.305Z,102673.38
2023-04-02T10:50:05.241Z,102672.63
2023-04-02T10:52:40.035Z,102669.22
2023-04-02T10:55:18.869Z,102667.75
2023-04-02T10:57:46.786Z,102667.75
2023-04-02T11:00:16.731Z,102669.66
2023-04-02T11:02:58.410Z,102665.31
2023-04-02T11:05:46.692Z,102670.84
2023-04-02T11:08:31.672Z,102674.44
2023-04-02T11:11:08.083Z,102679.00
2023-04-02T11:13:46.866Z,102678.25
2023-04-02T11:16:16.976Z,102680.06
2023-04-02T11:19:21.740Z,102692.50
2023-04-02T11:22:04.361Z,102686.34
2023-04-02T11:24:38.796Z,102688.19
2023-04-02T11:27:11.339Z,102698.06
2023-04-02T11:30:03.965Z,102699.03
2023-04-02T11:32:43.004Z,102707.00
2023-04-02T11:35:31.307Z,102715.94
2023-04-02T11:38:06.358Z,102713.41
2023-04-02T11:40:50.623Z,102718.81
2023-04-02T11:43:35.916Z,102726.59
2023-04-02T11:46:04.164Z,102715.94
2023-04-02T11:48:36.264Z,102721.28
2023-04-02T11:51:32.478Z,102724.88
2023-04-02T11:53:59.084Z,102717.75
2023-04-02T11:56:47.237Z,102728.31
2023-04-02T11:59:40.911Z,102724.88
2023-04-02T12:02:24.448Z,102736.38
2023-04-02T12:05:27.456Z,102739.16
2023-04-02T12:08:13.670Z,102733.84
2023-04-02T12:10:57.059Z,102756.94
2023-04-02T12:13:41.675Z,102751.59
2023-04-02T12:16:10.885Z,102741.81
2023-04-02T12:18:44.699Z,102743.53
2023-04-02T12:21:16.779Z,102759.38
2023-04-02T12:23:47.324Z,102754.06
2023-04-02T12:26:46.379Z,102747.03
2023-04-02T12:29:29.141Z,102763.66
2023-04-02T12:31:58.383Z,102761.59
2023-04-02T12:34:28.252Z,102757.88
2023-04-02T12:36:57.603Z,102767.41
2023-04-02T12:39:26.673Z,102764.66
2023-04-02T12:41:54.885Z,102769.63
2023-04-02T12:44:24.922Z,102770.38
2023-04-02T12:46:52.636Z,102768.69
2023-04-02T12:49:25.598Z,102775.41
2023-04-02T12:51:53.016Z,102754.00
2023-04-02T12:54:22.672Z,102767.09
2023-04-02T12:56:50.369Z,102769.75
2023-04-02T12:59:43.667Z,102767.72
2023-04-02T13:02:47.456Z,102769.41
2023-04-02T13:05:31.415Z,102766.66
2023-04-02T13:07:58.355Z,102780.72
2023-04-02T13:10:27.486Z,102774.44
2023-04-02T13:13:03.142Z,102782.22
2023-04-02T13:15:32.910Z,102786.44
2023-04-02T13:18:22.536Z,102785.50
2023-04-02T13:20:56.170Z,102782.72
2023-04-02T13:23:36.961Z,102779.00
2023-04-02T13:26:17.656Z,102788.59
2023-04-02T13:29:02.097Z,102777.09
2023-04-02T13:31:31.052Z,102769.84
2023-04-02T13:33:58.334Z,102772.41
2023-04-02T13:36:25.894Z,102779.44
2023-04-02T13:38:52.489Z,102777.63
2023-04-02T13:41:43.061Z,102782.59
2023-04-02T13:44:22.638Z,102782.59
2023-04-02T13:46:49.589Z,102783.34
2023-04-02T13:49:16.402Z,102777.16
2023-04-02T13:51:46.609Z,102788.47
2023-04-02T13:54:25.065Z,102793.59
2023-04-02T13:56:52.755Z,102800.63
2023-04-02T13:59:20.368Z,102793.44
2023-04-02T14:01:48.662Z,102791.63
2023-04-02T14:04:26.020Z,102802.19
2023-04-02T14:06:58.200Z,102809.88
2023-04-02T14:09:33.227Z,102811.56
2023-04-02T14:12:35.239Z,102800.81
2023-04-02T14:15:17.005Z,102811.38
2023-04-02T14:17:59.755Z,102809.66
2023-04-02T14:20:44.595Z,102809.31
2023-04-02T14:23:29.705Z,102810.06
2023-04-02T14:26:26.488Z,102810.78
2023-04-02T14:29:10.078Z,102813.47
2023-04-02T14:31:44.753Z,102812.72
2023-04-02T14:34:23.398Z,102809.94
2023-04-02T14:37:23.895Z,102814.41
2023-04-02T14:40:03.991Z,102814.63
2023-04-02T14:42:55.309Z,102820.72
2023-04-02T14:45:33.684Z,102831.25
2023-04-02T14:48:14.454Z,102828.38
2023-04-02T14:50:42.505Z,102824.56
2023-04-02T14:53:37.384Z,102845.63
2023-04-02T14:56:08.147Z,102838.38
2023-04-02T14:58:38.576Z,102836.38
2023-04-02T15:01:24.267Z,102838.00
2023-04-02T15:04:02.981Z,102839.69
2023-04-02T15:06:41.725Z,102838.59
2023-04-02T15:09:16.504Z,102843.72
2023-04-02T15:11:50.940Z,102842.84
2023-04-02T15:14:26.636Z,102849.03
2023-04-02T15:16:53.806Z,102845.31
2023-04-02T15:19:20.562Z,102846.06
2023-04-02T15:21:57.712Z,102860.13
2023-04-02T15:24:38.120Z,102862.59
2023-04-02T15:27:25.970Z,102855.56
2023-04-02T15:30:14.936Z,102850.94
2023-04-02T15:32:43.464Z,102849.25
2023-04-02T15:35:29.232Z,102856.25
2023-04-02T15:38:07.918Z,102855.31
2023-04-02T15:40:43.375Z,102858.81
2023-04-02T15:43:21.774Z,102859.78
2023-04-02T15:45:55.203Z,102867.06
2023-04-02T15:48:32.155Z,102866.09
2023-04-02T15:51:04.457Z,102861.75
2023-04-02T15:53:48.402Z,102868.88
2023-04-02T15:56:17.291Z,102865.47
2023-04-02T15:58:50.653Z,102855.75
2023-04-02T16:01:32.537Z,102861.09
2023-04-02T16:04:14.516Z,102867.28
2023-04-02T16:06:59.489Z,102869.09
2023-04-02T16:09:34.238Z,102872.72
2023-04-02T16:12:18.850Z,102875.28
2023-04-02T16:14:48.050Z,102875.28
2023-04-02T16:17:30.475Z,102871.88
2023-04-02T16:20:21.106Z,102880.72
2023-04-02T16:23:00.632Z,102895.75
2023-04-02T16:25:34.462Z,102890.53
2023-04-02T16:28:15.095Z,102905.38
2023-04-02T16:30:50.407Z,102907.06
2023-04-02T16:33:19.924Z,102901.84
2023-04-02T16:36:01.247Z,102906.22
2023-04-02T16:38:39.261Z,102901.84
2023-04-02T16:41:16.490Z,102905.38
2023-04-02T16:44:04.741Z,102909.84
2023-04-02T16:46:38.868Z,102913.97
2023-04-02T16:49:32.505Z,102915.56
2023-04-02T16:52:36.250Z,102918.13
2023-04-02T16:55:23.620Z,102926.56
2023-04-02T16:58:35.486Z,102931.75
2023-04-02T17:01:22.987Z,102940.50
2023-04-02T17:04:16.572Z,102948.28
2023-04-02T17:07:23.573Z,102953.41
2023-04-02T17:09:52.496Z,102964.84
2023-04-02T17:12:46.127Z,102973.59
2023-04-02T17:15:39.746Z,102952.03
2023-04-02T17:18:24.782Z,102977.81
2023-04-02T17:20:52.272Z,102970.66
2023-04-02T17:23:20.299Z,102984.00
2023-04-02T17:25:52.976Z,102980.38
2023-04-02T17:28:26.227Z,102980.28
2023-04-02T17:30:56.768Z,102988.28
2023-04-02T17:33:26.778Z,102994.47
2023-04-02T17:36:11.786Z,102986.47
2023-04-02T17:38:59.900Z,102989.25
2023-04-02T17:41:32.323Z,103002.69
2023-04-02T17:44:20.941Z,103005.47
2023-04-02T17:46:53.546Z,103013.59
2023-04-02T17:49:23.167Z,103009.22
2023-04-02T17:52:05.756Z,103005.38
2023-04-02T17:54:47.870Z,103021.94
2023-04-02T17:57:40.435Z,103022.03
2023-04-02T18:00:13.000Z,103025.66
2023-04-02T18:02:45.838Z,103033.75
2023-04-02T18:05:12.416Z,103043.56
2023-04-02T18:10:56.634Z,103042.09
2023-04-02T18:13:40.299Z,103041.25
2023-04-02T18:16:41.286Z,103044.88
2023-04-02T18:19:17.250Z,103045.84
2023-04-02T18:22:02.081Z,103052.97
2023-04-02T18:24:50.205Z,103053.19
2023-04-02T18:27:24.656Z,103058.53
2023-04-02T18:30:09.360Z,103065.66
2023-04-02T18:32:48.093Z,103064.91
2023-04-02T18:35:25.037Z,103065.78
2023-04-02T18:38:06.918Z,103073.97
2023-04-02T18:40:59.751Z,103080.16
2023-04-02T18:43:50.962Z,103079.53
2023-04-02T18:46:23.412Z,103084.03
2023-04-02T18:48:56.814Z,103095.44
2023-04-02T18:51:27.150Z,103094.69
2023-04-02T18:54:05.740Z,103101.84
2023-04-02T18:56:32.449Z,103106.31
2023-04-02T18:59:23.596Z,103113.56
2023-04-02T19:01:53.831Z,103120.72
2023-04-02T19:04:32.790Z,103115.47
2023-04-02T19:07:14.259Z,103130.53
2023-04-02T19:09:44.477Z,103136.91
2023-04-02T19:12:19.040Z,103144.81
2023-04-02T19:14:49.708Z,103147.56
2023-04-02T19:17:24.880Z,103152.91
2023-04-02T19:20:27.578Z,103155.78
2023-04-02T19:23:12.153Z,103158.44
2023-04-02T19:26:01.341Z,103161.09
2023-04-02T19:29:00.890Z,103162.06
2023-04-02T19:31:46.255Z,103163.06
2023-04-02T19:34:22.394Z,103160.56
2023-04-02T19:36:55.402Z,103173.72
2023-04-02T19:39:51.841Z,103175.41
2023-04-02T19:42:40.087Z,103174.66
2023-04-02T19:45:38.777Z,103172.09
2023-04-02T19:48:12.417Z,103185.19
2023-04-02T19:50:39.414Z,103169.44
2023-04-02T19:53:05.998Z,103183.63
2023-04-02T19:55:32.589Z,103183.63
2023-04-02T19:58:09.015Z,103178.38
2023-04-02T20:00:44.088Z,103184.56
2023-04-02T20:03:10.673Z,103192.47
2023-04-02T20:05:37.536Z,103194.38
2023-04-02T20:08:04.667Z,103186.28
2023-04-02T20:10:31.356Z,103194.38
2023-04-02T20:12:57.915Z,103184.66
2023-04-02T20:15:24.746Z,103192.66
2023-04-02T20:17:51.346Z,103190.16
2023-04-02T20:20:17.893Z,103206.84
2023-04-02T20:22:44.600Z,103207.72
2023-04-02T20:25:11.352Z,103214.00
2023-04-02T20:27:37.917Z,103220.19
2023-04-02T20:30:05.132Z,103218.47
2023-04-02T20:32:32.303Z,103220.34
2023-04-02T20:34:58.982Z,103224.72
2023-04-02T20:37:25.640Z,103230.06
2023-04-02T20:39:52.706Z,103227.41
2023-04-02T20:42:19.320Z,103225.88
2023-04-02T20:44:46.268Z,103236.34
2023-04-02T20:47:13.235Z,103241.88
2023-04-02T20:49:39.773Z,103244.44
2023-04-02T20:52:06.352Z,103244.44
2023-04-02T20:54:33.064Z,103247.19
2023-04-02T20:56:59.752Z,103249.88
2023-04-02T20:59:26.350Z,103255.28
2023-04-02T21:01:53.080Z,103256.16
2023-04-02T21:04:20.033Z,103252.09
2023-04-02T21:06:46.581Z,103259.78
2023-04-02T21:09:18.135Z,103264.38
2023-04-02T21:11:44.845Z,103264.66
2023-04-02T21:14:11.691Z,103270.00
2023-04-02T21:16:40.626Z,103278.94
2023-04-02T21:19:09.312Z,103282.66
2023-04-02T21:21:37.678Z,103286.28
2023-04-02T21:24:07.442Z,103281.91
2023-04-02T21:26:37.006Z,103288.31
2023-04-02T21:29:03.749Z,103287.53
2023-04-02T21:31:34.986Z,103294.69
2023-04-02T21:34:01.937Z,103294.00
2023-04-02T21:36:34.145Z,103294.88
2023-04-02T21:39:04.186Z,103295.06
2023-04-02T21:41:36.392Z,103307.53
2023-04-02T21:44:05.220Z,103291.63
2023-04-02T21:46:36.082Z,103298.75
2023-04-02T21:49:03.178Z,103305.03
2023-04-02T21:51:34.375Z,103307.06
2023-04-02T21:54:01.667Z,103307.16
2023-04-02T21:56:30.662Z,103310.88
2023-04-02T21:58:58.663Z,103305.53
2023-04-02T22:01:27.964Z,103303.91
2023-04-02T22:03:59.905Z,103298.69
2023-04-02T22:06:28.567Z,103298.91
2023-04-02T22:09:00.907Z,103307.63
2023-04-02T22:11:30.537Z,103299.75
2023-04-02T22:13:57.921Z,103299.94
2023-04-02T22:16:28.053Z,103307.16
2023-04-02T22:18:57.069Z,103308.13
2023-04-02T22:21:24.294Z,103307.44
2023-04-02T22:23:51.683Z,103310.09
2023-04-02T22:26:19.816Z,103292.50
2023-04-02T22:28:46.613Z,103304.97
2023-04-02T22:31:18.817Z,103299.63
2023-04-02T22:33:47.073Z,103305.09
2023-04-02T22:36:14.954Z,103301.66
2023-04-02T22:38:41.565Z,103301.94
2023-04-02T22:41:14.241Z,103308.88
2023-04-02T22:43:43.914Z,103306.47
2023-04-02T22:46:12.301Z,103306.56
2023-04-02T22:48:42.251Z,103310.94
2023-04-02T22:51:11.455Z,103311.91
2023-04-02T22:53:38.737Z,103316.50
2023-04-02T22:56:09.562Z,103313.81
2023-04-02T22:58:36.565Z,103309.63
2023-04-02T23:01:12.235Z,103323.81
2023-04-02T23:03:39.244Z,103320.56
2023-04-02T23:06:09.557Z,103322.34
2023-04-02T23:08:36.803Z,103321.50
2023-04-02T23:11:18.831Z,103328.63
2023-04-02T23:13:47.716Z,103324.47
2023-04-02T23:16:15.660Z,103332.44
2023-04-02T23:18:43.766Z,103332.44
2023-04-02T23:21:10.546Z,103334.34
2023-04-02T23:23:37.609Z,103333.47
2023-04-02T23:26:19.684Z,103336.16
2023-04-02T23:28:46.249Z,103331.84
2023-04-02T23:31:15.839Z,103334.53
2023-04-02T23:33:43.008Z,103333.03
2023-04-02T23:36:27.638Z,103336.56
2023-04-02T23:38:56.340Z,103343.69
2023-04-02T23:41:24.747Z,103343.69
2023-04-02T23:43:51.992Z,103347.28
2023-04-02T23:46:19.099Z,103339.50
2023-04-02T23:48:46.788Z,103346.56
2023-04-02T23:51:14.380Z,103349.31
2023-04-02T23:53:41.221Z,103356.44
2023-04-02T23:56:07.942Z,103351.19
2023-04-02T23:58:34.830Z,103350.34
